sensor_id;sensor_type;location;lat;lon;timestamp;P1;durP1;ratioP1;P2;durP2;ratioP2
36443;SDS011;24692;45.642;13.806;2023-04-03T00:01:11;0.80;;;0.80;;
36443;SDS011;24692;45.642;13.806;2023-04-03T00:03:37;1.10;;;1.00;;
36443;SDS011;24692;45.642;13.806;2023-04-03T00:06:03;1.20;;;1.10;;
36443;SDS011;24692;45.642;13.806;2023-04-03T00:08:30;1.83;;;1.20;;
36443;SDS011;24692;45.642;13.806;2023-04-03T00:10:57;1.20;;;1.10;;
36443;SDS011;24692;45.642;13.806;2023-04-03T00:13:24;1.30;;;1.20;;
36443;SDS011;24692;45.642;13.806;2023-04-03T00:15:50;1.97;;;1.40;;
36443;SDS011;24692;45.642;13.806;2023-04-03T00:18:16;2.60;;;1.30;;
36443;SDS011;24692;45.642;13.806;2023-04-03T00:20:42;1.30;;;1.20;;
36443;SDS011;24692;45.642;13.806;2023-04-03T00:23:08;1.43;;;1.30;;
36443;SDS011;24692;45.642;13.806;2023-04-03T00:25:34;1.63;;;1.20;;
36443;SDS011;24692;45.642;13.806;2023-04-03T00:28:00;1.33;;;1.23;;
36443;SDS011;24692;45.642;13.806;2023-04-03T00:30:25;1.53;;;1.20;;
36443;SDS011;24692;45.642;13.806;2023-04-03T00:32:51;1.20;;;1.20;;
36443;SDS011;24692;45.642;13.806;2023-04-03T00:35:18;1.43;;;1.30;;
36443;SDS011;24692;45.642;13.806;2023-04-03T00:37:44;1.53;;;1.23;;
36443;SDS011;24692;45.642;13.806;2023-04-03T00:40:11;1.30;;;1.20;;
36443;SDS011;24692;45.642;13.806;2023-04-03T00:42:39;3.80;;;1.40;;
36443;SDS011;24692;45.642;13.806;2023-04-03T00:47:50;1.30;;;1.20;;
36443;SDS011;24692;45.642;13.806;2023-04-03T00:50:16;1.70;;;1.60;;
36443;SDS011;24692;45.642;13.806;2023-04-03T00:52:42;1.27;;;1.17;;
36443;SDS011;24692;45.642;13.806;2023-04-03T00:55:11;1.57;;;1.47;;
36443;SDS011;24692;45.642;13.806;2023-04-03T00:57:39;1.67;;;1.57;;
36443;SDS011;24692;45.642;13.806;2023-04-03T01:00:08;1.60;;;1.50;;
36443;SDS011;24692;45.642;13.806;2023-04-03T01:02:36;1.70;;;1.60;;
36443;SDS011;24692;45.642;13.806;2023-04-03T01:05:02;2.90;;;1.83;;
36443;SDS011;24692;45.642;13.806;2023-04-03T01:07:29;1.70;;;1.60;;
36443;SDS011;24692;45.642;13.806;2023-04-03T01:09:57;3.73;;;1.60;;
36443;SDS011;24692;45.642;13.806;2023-04-03T01:12:35;1.60;;;1.50;;
36443;SDS011;24692;45.642;13.806;2023-04-03T01:15:15;1.60;;;1.50;;
36443;SDS011;24692;45.642;13.806;2023-04-03T01:17:50;1.83;;;1.73;;
36443;SDS011;24692;45.642;13.806;2023-04-03T01:28:13;1.97;;;1.77;;
36443;SDS011;24692;45.642;13.806;2023-04-03T01:30:43;2.10;;;1.90;;
36443;SDS011;24692;45.642;13.806;2023-04-03T01:33:12;1.50;;;1.40;;
36443;SDS011;24692;45.642;13.806;2023-04-03T01:35:38;2.07;;;1.90;;
36443;SDS011;24692;45.642;13.806;2023-04-03T01:38:04;3.37;;;1.80;;
36443;SDS011;24692;45.642;13.806;2023-04-03T01:40:30;2.43;;;2.10;;
36443;SDS011;24692;45.642;13.806;2023-04-03T01:42:55;1.77;;;1.67;;
36443;SDS011;24692;45.642;13.806;2023-04-03T01:45:21;2.70;;;1.90;;
36443;SDS011;24692;45.642;13.806;2023-04-03T01:47:47;2.00;;;1.80;;
36443;SDS011;24692;45.642;13.806;2023-04-03T01:50:12;2.30;;;2.10;;
36443;SDS011;24692;45.642;13.806;2023-04-03T01:52:38;2.20;;;2.00;;
36443;SDS011;24692;45.642;13.806;2023-04-03T01:55:04;2.00;;;1.90;;
36443;SDS011;24692;45.642;13.806;2023-04-03T01:57:30;2.00;;;1.80;;
36443;SDS011;24692;45.642;13.806;2023-04-03T01:59:55;2.07;;;1.90;;
36443;SDS011;24692;45.642;13.806;2023-04-03T02:02:21;2.03;;;1.93;;
36443;SDS011;24692;45.642;13.806;2023-04-03T02:04:47;2.30;;;2.10;;
36443;SDS011;24692;45.642;13.806;2023-04-03T02:07:12;2.33;;;2.13;;
36443;SDS011;24692;45.642;13.806;2023-04-03T02:09:38;3.37;;;2.20;;
36443;SDS011;24692;45.642;13.806;2023-04-03T02:12:04;2.30;;;2.03;;
36443;SDS011;24692;45.642;13.806;2023-04-03T02:14:29;4.23;;;2.20;;
36443;SDS011;24692;45.642;13.806;2023-04-03T02:16:55;2.27;;;1.93;;
36443;SDS011;24692;45.642;13.806;2023-04-03T02:19:21;2.40;;;2.20;;
36443;SDS011;24692;45.642;13.806;2023-04-03T02:21:46;2.40;;;2.20;;
36443;SDS011;24692;45.642;13.806;2023-04-03T02:24:12;2.50;;;2.30;;
36443;SDS011;24692;45.642;13.806;2023-04-03T02:26:41;2.60;;;2.37;;
36443;SDS011;24692;45.642;13.806;2023-04-03T02:29:07;3.20;;;2.33;;
36443;SDS011;24692;45.642;13.806;2023-04-03T02:31:32;2.40;;;2.20;;
36443;SDS011;24692;45.642;13.806;2023-04-03T02:34:01;3.10;;;2.40;;
36443;SDS011;24692;45.642;13.806;2023-04-03T02:36:27;2.30;;;2.10;;
36443;SDS011;24692;45.642;13.806;2023-04-03T02:38:53;2.57;;;2.37;;
36443;SDS011;24692;45.642;13.806;2023-04-03T02:41:18;3.93;;;2.50;;
36443;SDS011;24692;45.642;13.806;2023-04-03T02:43:46;2.80;;;2.50;;
36443;SDS011;24692;45.642;13.806;2023-04-03T02:46:11;2.73;;;2.47;;
36443;SDS011;24692;45.642;13.806;2023-04-03T02:48:39;3.40;;;2.60;;
36443;SDS011;24692;45.642;13.806;2023-04-03T02:51:05;3.43;;;2.40;;
36443;SDS011;24692;45.642;13.806;2023-04-03T02:53:31;2.87;;;2.53;;
36443;SDS011;24692;45.642;13.806;2023-04-03T02:55:57;2.93;;;2.63;;
36443;SDS011;24692;45.642;13.806;2023-04-03T02:58:22;2.50;;;2.30;;
36443;SDS011;24692;45.642;13.806;2023-04-03T03:00:49;3.33;;;2.70;;
36443;SDS011;24692;45.642;13.806;2023-04-03T03:03:15;3.10;;;2.80;;
36443;SDS011;24692;45.642;13.806;2023-04-03T03:05:41;3.80;;;2.60;;
36443;SDS011;24692;45.642;13.806;2023-04-03T03:08:06;4.93;;;3.13;;
36443;SDS011;24692;45.642;13.806;2023-04-03T03:10:32;3.10;;;2.80;;
36443;SDS011;24692;45.642;13.806;2023-04-03T03:12:58;2.90;;;2.60;;
36443;SDS011;24692;45.642;13.806;2023-04-03T03:15:23;3.13;;;2.70;;
36443;SDS011;24692;45.642;13.806;2023-04-03T03:17:49;2.80;;;2.50;;
36443;SDS011;24692;45.642;13.806;2023-04-03T03:20:14;2.80;;;2.60;;
36443;SDS011;24692;45.642;13.806;2023-04-03T03:22:40;2.70;;;2.50;;
36443;SDS011;24692;45.642;13.806;2023-04-03T03:25:06;2.83;;;2.63;;
36443;SDS011;24692;45.642;13.806;2023-04-03T03:27:32;2.80;;;2.60;;
36443;SDS011;24692;45.642;13.806;2023-04-03T03:29:57;3.07;;;2.43;;
36443;SDS011;24692;45.642;13.806;2023-04-03T03:32:23;3.10;;;2.80;;
36443;SDS011;24692;45.642;13.806;2023-04-03T03:34:50;3.50;;;2.80;;
36443;SDS011;24692;45.642;13.806;2023-04-03T03:37:16;3.00;;;2.70;;
36443;SDS011;24692;45.642;13.806;2023-04-03T03:39:42;3.60;;;2.67;;
36443;SDS011;24692;45.642;13.806;2023-04-03T03:42:07;2.60;;;2.40;;
36443;SDS011;24692;45.642;13.806;2023-04-03T03:44:33;3.10;;;2.80;;
36443;SDS011;24692;45.642;13.806;2023-04-03T03:46:59;2.70;;;2.50;;
36443;SDS011;24692;45.642;13.806;2023-04-03T03:49:24;2.40;;;2.20;;
36443;SDS011;24692;45.642;13.806;2023-04-03T03:51:50;3.20;;;2.30;;
36443;SDS011;24692;45.642;13.806;2023-04-03T03:54:16;2.57;;;2.30;;
36443;SDS011;24692;45.642;13.806;2023-04-03T03:56:42;2.50;;;2.30;;
36443;SDS011;24692;45.642;13.806;2023-04-03T03:59:08;2.70;;;2.47;;
36443;SDS011;24692;45.642;13.806;2023-04-03T04:01:36;2.30;;;2.10;;
36443;SDS011;24692;45.642;13.806;2023-04-03T04:04:01;2.50;;;2.30;;
36443;SDS011;24692;45.642;13.806;2023-04-03T04:06:27;3.10;;;2.33;;
36443;SDS011;24692;45.642;13.806;2023-04-03T04:08:53;2.87;;;2.50;;
36443;SDS011;24692;45.642;13.806;2023-04-03T04:11:19;2.70;;;2.50;;
36443;SDS011;24692;45.642;13.806;2023-04-03T04:13:46;3.83;;;2.30;;
36443;SDS011;24692;45.642;13.806;2023-04-03T04:16:12;2.50;;;2.30;;
36443;SDS011;24692;45.642;13.806;2023-04-03T04:18:37;3.00;;;2.30;;
36443;SDS011;24692;45.642;13.806;2023-04-03T04:21:03;2.60;;;2.40;;
36443;SDS011;24692;45.642;13.806;2023-04-03T04:23:28;2.80;;;2.53;;
36443;SDS011;24692;45.642;13.806;2023-04-03T04:25:54;2.40;;;2.20;;
36443;SDS011;24692;45.642;13.806;2023-04-03T04:28:20;4.10;;;2.37;;
36443;SDS011;24692;45.642;13.806;2023-04-03T04:30:46;2.60;;;2.37;;
36443;SDS011;24692;45.642;13.806;2023-04-03T04:33:11;2.50;;;2.30;;
36443;SDS011;24692;45.642;13.806;2023-04-03T04:35:38;2.40;;;2.20;;
36443;SDS011;24692;45.642;13.806;2023-04-03T04:38:06;3.50;;;2.30;;
36443;SDS011;24692;45.642;13.806;2023-04-03T04:40:33;2.47;;;2.10;;
36443;SDS011;24692;45.642;13.806;2023-04-03T04:42:59;2.30;;;2.10;;
36443;SDS011;24692;45.642;13.806;2023-04-03T04:45:24;2.70;;;2.50;;
36443;SDS011;24692;45.642;13.806;2023-04-03T04:47:50;2.50;;;2.30;;
36443;SDS011;24692;45.642;13.806;2023-04-03T04:50:17;3.47;;;2.60;;
36443;SDS011;24692;45.642;13.806;2023-04-03T04:52:43;2.93;;;2.30;;
36443;SDS011;24692;45.642;13.806;2023-04-03T04:55:09;3.60;;;2.43;;
36443;SDS011;24692;45.642;13.806;2023-04-03T04:57:34;2.53;;;2.33;;
36443;SDS011;24692;45.642;13.806;2023-04-03T05:00:01;2.53;;;2.30;;
36443;SDS011;24692;45.642;13.806;2023-04-03T05:02:27;3.27;;;2.23;;
36443;SDS011;24692;45.642;13.806;2023-04-03T05:04:53;2.47;;;2.27;;
36443;SDS011;24692;45.642;13.806;2023-04-03T05:07:19;2.90;;;2.30;;
36443;SDS011;24692;45.642;13.806;2023-04-03T05:09:44;2.50;;;2.30;;
36443;SDS011;24692;45.642;13.806;2023-04-03T05:12:10;2.40;;;2.20;;
36443;SDS011;24692;45.642;13.806;2023-04-03T05:14:36;2.77;;;2.40;;
36443;SDS011;24692;45.642;13.806;2023-04-03T05:17:01;2.53;;;2.33;;
36443;SDS011;24692;45.642;13.806;2023-04-03T05:19:27;4.00;;;2.43;;
36443;SDS011;24692;45.642;13.806;2023-04-03T05:21:53;2.67;;;2.30;;
36443;SDS011;24692;45.642;13.806;2023-04-03T05:24:18;2.33;;;2.13;;
36443;SDS011;24692;45.642;13.806;2023-04-03T05:26:44;3.77;;;2.50;;
36443;SDS011;24692;45.642;13.806;2023-04-03T05:29:10;2.53;;;2.33;;
36443;SDS011;24692;45.642;13.806;2023-04-03T05:31:36;2.80;;;2.20;;
36443;SDS011;24692;45.642;13.806;2023-04-03T05:34:02;6.33;;;2.20;;
36443;SDS011;24692;45.642;13.806;2023-04-03T05:36:28;3.07;;;2.47;;
36443;SDS011;24692;45.642;13.806;2023-04-03T05:38:54;2.83;;;2.40;;
36443;SDS011;24692;45.642;13.806;2023-04-03T05:41:21;2.70;;;2.27;;
36443;SDS011;24692;45.642;13.806;2023-04-03T05:43:47;3.53;;;2.50;;
36443;SDS011;24692;45.642;13.806;2023-04-03T05:46:13;2.30;;;2.10;;
36443;SDS011;24692;45.642;13.806;2023-04-03T05:48:41;2.77;;;2.43;;
36443;SDS011;24692;45.642;13.806;2023-04-03T05:51:09;2.63;;;2.30;;
36443;SDS011;24692;45.642;13.806;2023-04-03T05:53:47;3.60;;;2.40;;
36443;SDS011;24692;45.642;13.806;2023-04-03T05:56:15;2.90;;;2.30;;
36443;SDS011;24692;45.642;13.806;2023-04-03T05:58:41;2.40;;;2.20;;
36443;SDS011;24692;45.642;13.806;2023-04-03T06:01:06;2.70;;;2.40;;
36443;SDS011;24692;45.642;13.806;2023-04-03T06:03:32;2.60;;;2.13;;
36443;SDS011;24692;45.642;13.806;2023-04-03T06:05:58;3.53;;;2.43;;
36443;SDS011;24692;45.642;13.806;2023-04-03T06:08:24;19.50;;;4.30;;
36443;SDS011;24692;45.642;13.806;2023-04-03T06:10:50;22.17;;;4.83;;
36443;SDS011;24692;45.642;13.806;2023-04-03T06:13:16;6.17;;;2.60;;
36443;SDS011;24692;45.642;13.806;2023-04-03T06:15:42;16.60;;;3.77;;
36443;SDS011;24692;45.642;13.806;2023-04-03T06:18:07;11.47;;;3.87;;
36443;SDS011;24692;45.642;13.806;2023-04-03T06:20:33;3.50;;;2.07;;
36443;SDS011;24692;45.642;13.806;2023-04-03T06:22:59;4.67;;;2.50;;
36443;SDS011;24692;45.642;13.806;2023-04-03T06:25:25;21.13;;;4.57;;
36443;SDS011;24692;45.642;13.806;2023-04-03T06:27:51;6.17;;;2.47;;
36443;SDS011;24692;45.642;13.806;2023-04-03T06:30:17;2.47;;;2.07;;
36443;SDS011;24692;45.642;13.806;2023-04-03T06:32:43;9.10;;;2.90;;
36443;SDS011;24692;45.642;13.806;2023-04-03T06:35:08;4.17;;;2.50;;
36443;SDS011;24692;45.642;13.806;2023-04-03T06:37:34;2.53;;;2.13;;
36443;SDS011;24692;45.642;13.806;2023-04-03T06:40:00;7.47;;;2.70;;
36443;SDS011;24692;45.642;13.806;2023-04-03T06:42:26;8.13;;;2.80;;
36443;SDS011;24692;45.642;13.806;2023-04-03T06:44:52;3.07;;;2.07;;
36443;SDS011;24692;45.642;13.806;2023-04-03T06:47:18;14.20;;;4.67;;
36443;SDS011;24692;45.642;13.806;2023-04-03T06:49:44;7.23;;;4.23;;
36443;SDS011;24692;45.642;13.806;2023-04-03T06:52:10;3.80;;;2.23;;
36443;SDS011;24692;45.642;13.806;2023-04-03T06:54:37;5.93;;;2.80;;
36443;SDS011;24692;45.642;13.806;2023-04-03T06:57:03;10.73;;;2.77;;
36443;SDS011;24692;45.642;13.806;2023-04-03T06:59:29;5.33;;;2.10;;
36443;SDS011;24692;45.642;13.806;2023-04-03T07:01:55;4.17;;;2.10;;
36443;SDS011;24692;45.642;13.806;2023-04-03T07:04:20;6.27;;;2.37;;
36443;SDS011;24692;45.642;13.806;2023-04-03T07:06:46;3.63;;;2.00;;
36443;SDS011;24692;45.642;13.806;2023-04-03T07:09:13;6.47;;;2.37;;
36443;SDS011;24692;45.642;13.806;2023-04-03T07:11:40;6.37;;;2.20;;
36443;SDS011;24692;45.642;13.806;2023-04-03T07:14:06;3.10;;;1.90;;
36443;SDS011;24692;45.642;13.806;2023-04-03T07:16:33;3.20;;;2.10;;
36443;SDS011;24692;45.642;13.806;2023-04-03T07:18:59;2.27;;;2.07;;
36443;SDS011;24692;45.642;13.806;2023-04-03T07:21:26;2.47;;;2.07;;
36443;SDS011;24692;45.642;13.806;2023-04-03T07:23:52;1.97;;;1.80;;
36443;SDS011;24692;45.642;13.806;2023-04-03T07:26:18;2.77;;;1.80;;
36443;SDS011;24692;45.642;13.806;2023-04-03T07:28:45;2.07;;;1.60;;
36443;SDS011;24692;45.642;13.806;2023-04-03T07:31:13;1.60;;;1.50;;
36443;SDS011;24692;45.642;13.806;2023-04-03T07:33:42;1.73;;;1.63;;
36443;SDS011;24692;45.642;13.806;2023-04-03T07:36:09;3.43;;;1.83;;
36443;SDS011;24692;45.642;13.806;2023-04-03T07:38:36;2.00;;;1.60;;
36443;SDS011;24692;45.642;13.806;2023-04-03T07:41:02;1.90;;;1.70;;
36443;SDS011;24692;45.642;13.806;2023-04-03T07:43:28;1.77;;;1.67;;
36443;SDS011;24692;45.642;13.806;2023-04-03T07:45:54;1.50;;;1.40;;
36443;SDS011;24692;45.642;13.806;2023-04-03T07:48:26;1.50;;;1.40;;
36443;SDS011;24692;45.642;13.806;2023-04-03T07:50:51;1.77;;;1.67;;
36443;SDS011;24692;45.642;13.806;2023-04-03T07:53:17;1.50;;;1.40;;
36443;SDS011;24692;45.642;13.806;2023-04-03T07:55:45;2.00;;;1.60;;
36443;SDS011;24692;45.642;13.806;2023-04-03T07:58:16;1.50;;;1.40;;
36443;SDS011;24692;45.642;13.806;2023-04-03T08:00:43;2.67;;;1.60;;
36443;SDS011;24692;45.642;13.806;2023-04-03T08:03:09;1.60;;;1.50;;
36443;SDS011;24692;45.642;13.806;2023-04-03T08:05:40;1.87;;;1.63;;
36443;SDS011;24692;45.642;13.806;2023-04-03T08:08:07;4.33;;;1.80;;
36443;SDS011;24692;45.642;13.806;2023-04-03T08:10:34;2.20;;;1.50;;
36443;SDS011;24692;45.642;13.806;2023-04-03T08:13:00;1.55;;;1.45;;
36443;SDS011;24692;45.642;13.806;2023-04-03T08:15:27;2.40;;;1.50;;
36443;SDS011;24692;45.642;13.806;2023-04-03T08:17:53;2.35;;;1.40;;
36443;SDS011;24692;45.642;13.806;2023-04-03T08:20:19;2.70;;;1.60;;
36443;SDS011;24692;45.642;13.806;2023-04-03T08:22:45;3.15;;;1.50;;
36443;SDS011;24692;45.642;13.806;2023-04-03T08:25:11;15.55;;;2.42;;
36443;SDS011;24692;45.642;13.806;2023-04-03T08:27:37;4.73;;;1.70;;
36443;SDS011;24692;45.642;13.806;2023-04-03T08:30:03;6.13;;;1.80;;
36443;SDS011;24692;45.642;13.806;2023-04-03T08:32:29;1.90;;;1.40;;
36443;SDS011;24692;45.642;13.806;2023-04-03T08:34:55;2.17;;;1.73;;
36443;SDS011;24692;45.642;13.806;2023-04-03T08:37:21;2.23;;;1.23;;
36443;SDS011;24692;45.642;13.806;2023-04-03T08:39:47;1.60;;;1.50;;
36443;SDS011;24692;45.642;13.806;2023-04-03T08:45:48;2.97;;;1.60;;
36443;SDS011;24692;45.642;13.806;2023-04-03T08:48:15;1.70;;;1.57;;
36443;SDS011;24692;45.642;13.806;2023-04-03T08:51:03;1.77;;;1.50;;
36443;SDS011;24692;45.642;13.806;2023-04-03T08:53:36;1.80;;;1.70;;
36443;SDS011;24692;45.642;13.806;2023-04-03T08:56:08;1.70;;;1.50;;
36443;SDS011;24692;45.642;13.806;2023-04-03T08:58:47;2.30;;;1.30;;
36443;SDS011;24692;45.642;13.806;2023-04-03T09:01:30;2.13;;;1.50;;
36443;SDS011;24692;45.642;13.806;2023-04-03T09:04:02;1.75;;;1.40;;
36443;SDS011;24692;45.642;13.806;2023-04-03T09:06:35;1.60;;;1.50;;
36443;SDS011;24692;45.642;13.806;2023-04-03T09:09:13;1.70;;;1.40;;
36443;SDS011;24692;45.642;13.806;2023-04-03T09:15:02;1.63;;;1.50;;
36443;SDS011;24692;45.642;13.806;2023-04-03T09:22:34;3.10;;;1.40;;
36443;SDS011;24692;45.642;13.806;2023-04-03T09:25:17;4.33;;;1.60;;
36443;SDS011;24692;45.642;13.806;2023-04-03T09:27:46;1.42;;;1.33;;
36443;SDS011;24692;45.642;13.806;2023-04-03T09:30:13;6.75;;;1.40;;
36443;SDS011;24692;45.642;13.806;2023-04-03T09:32:41;2.88;;;1.45;;
36443;SDS011;24692;45.642;13.806;2023-04-03T09:35:27;1.37;;;1.27;;
36443;SDS011;24692;45.642;13.806;2023-04-03T09:37:55;1.67;;;1.33;;
36443;SDS011;24692;45.642;13.806;2023-04-03T09:45:46;1.13;;;1.13;;
36443;SDS011;24692;45.642;13.806;2023-04-03T09:56:01;2.43;;;1.50;;
36443;SDS011;24692;45.642;13.806;2023-04-03T10:04:07;1.37;;;1.27;;
36443;SDS011;24692;45.642;13.806;2023-04-03T10:06:56;1.30;;;1.20;;
36443;SDS011;24692;45.642;13.806;2023-04-03T10:12:08;1.35;;;1.20;;
36443;SDS011;24692;45.642;13.806;2023-04-03T10:15:19;1.50;;;1.40;;
36443;SDS011;24692;45.642;13.806;2023-04-03T10:22:39;2.38;;;1.23;;
36443;SDS011;24692;45.642;13.806;2023-04-03T10:30:34;2.60;;;1.20;;
36443;SDS011;24692;45.642;13.806;2023-04-03T10:33:35;1.40;;;1.30;;
36443;SDS011;24692;45.642;13.806;2023-04-03T10:36:45;1.40;;;1.30;;
36443;SDS011;24692;45.642;13.806;2023-04-03T10:55:38;1.30;;;1.20;;
36443;SDS011;24692;45.642;13.806;2023-04-03T10:58:18;1.73;;;1.20;;
36443;SDS011;24692;45.642;13.806;2023-04-03T11:00:55;1.30;;;1.20;;
36443;SDS011;24692;45.642;13.806;2023-04-03T11:03:33;2.27;;;1.13;;
36443;SDS011;24692;45.642;13.806;2023-04-03T11:06:19;2.20;;;1.30;;
36443;SDS011;24692;45.642;13.806;2023-04-03T11:08:50;1.95;;;1.40;;
36443;SDS011;24692;45.642;13.806;2023-04-03T11:11:29;3.70;;;1.20;;
36443;SDS011;24692;45.642;13.806;2023-04-03T11:16:45;1.40;;;1.30;;
36443;SDS011;24692;45.642;13.806;2023-04-03T11:24:52;1.58;;;1.30;;
36443;SDS011;24692;45.642;13.806;2023-04-03T11:27:48;1.27;;;1.10;;
36443;SDS011;24692;45.642;13.806;2023-04-03T11:30:28;3.47;;;1.33;;
36443;SDS011;24692;45.642;13.806;2023-04-03T11:35:42;1.63;;;1.43;;
36443;SDS011;24692;45.642;13.806;2023-04-03T11:38:14;2.03;;;1.40;;
36443;SDS011;24692;45.642;13.806;2023-04-03T11:40:54;1.40;;;1.30;;
36443;SDS011;24692;45.642;13.806;2023-04-03T11:43:25;1.30;;;1.20;;
36443;SDS011;24692;45.642;13.806;2023-04-03T11:51:03;2.80;;;1.50;;
36443;SDS011;24692;45.642;13.806;2023-04-03T11:53:52;1.30;;;1.20;;
36443;SDS011;24692;45.642;13.806;2023-04-03T12:04:24;1.90;;;1.27;;
36443;SDS011;24692;45.642;13.806;2023-04-03T12:06:54;3.27;;;1.57;;
36443;SDS011;24692;45.642;13.806;2023-04-03T12:15:12;2.23;;;1.60;;
36443;SDS011;24692;45.642;13.806;2023-04-03T12:17:44;1.40;;;1.30;;
36443;SDS011;24692;45.642;13.806;2023-04-03T12:20:53;2.63;;;1.25;;
36443;SDS011;24692;45.642;13.806;2023-04-03T12:23:23;1.90;;;1.52;;
36443;SDS011;24692;45.642;13.806;2023-04-03T12:25:59;1.20;;;1.10;;
36443;SDS011;24692;45.642;13.806;2023-04-03T12:28:29;1.30;;;1.13;;
36443;SDS011;24692;45.642;13.806;2023-04-03T12:30:54;1.25;;;1.15;;
36443;SDS011;24692;45.642;13.806;2023-04-03T12:33:27;2.60;;;1.30;;
36443;SDS011;24692;45.642;13.806;2023-04-03T12:44:31;1.20;;;1.10;;
36443;SDS011;24692;45.642;13.806;2023-04-03T12:47:02;1.52;;;1.05;;
36443;SDS011;24692;45.642;13.806;2023-04-03T12:49:46;1.50;;;1.20;;
36443;SDS011;24692;45.642;13.806;2023-04-03T12:52:25;1.90;;;1.40;;
36443;SDS011;24692;45.642;13.806;2023-04-03T12:55:16;2.30;;;1.30;;
36443;SDS011;24692;45.642;13.806;2023-04-03T12:57:42;1.88;;;1.05;;
36443;SDS011;24692;45.642;13.806;2023-04-03T13:00:18;2.00;;;1.10;;
36443;SDS011;24692;45.642;13.806;2023-04-03T13:02:47;2.22;;;1.52;;
36443;SDS011;24692;45.642;13.806;2023-04-03T13:05:16;1.20;;;1.10;;
36443;SDS011;24692;45.642;13.806;2023-04-03T13:07:43;1.37;;;1.20;;
36443;SDS011;24692;45.642;13.806;2023-04-03T13:10:16;1.13;;;1.02;;
36443;SDS011;24692;45.642;13.806;2023-04-03T13:12:47;1.47;;;1.10;;
36443;SDS011;24692;45.642;13.806;2023-04-03T13:15:25;1.90;;;1.30;;
36443;SDS011;24692;45.642;13.806;2023-04-03T13:17:56;1.37;;;1.20;;
36443;SDS011;24692;45.642;13.806;2023-04-03T13:20:26;0.90;;;0.90;;
36443;SDS011;24692;45.642;13.806;2023-04-03T13:25:31;1.40;;;1.23;;
36443;SDS011;24692;45.642;13.806;2023-04-03T13:27:59;1.20;;;1.10;;
36443;SDS011;24692;45.642;13.806;2023-04-03T13:30:31;1.10;;;1.00;;
36443;SDS011;24692;45.642;13.806;2023-04-03T13:33:00;3.50;;;1.30;;
36443;SDS011;24692;45.642;13.806;2023-04-03T13:35:39;1.30;;;1.10;;
36443;SDS011;24692;45.642;13.806;2023-04-03T13:40:58;1.50;;;1.00;;
36443;SDS011;24692;45.642;13.806;2023-04-03T13:43:32;1.17;;;1.07;;
36443;SDS011;24692;45.642;13.806;2023-04-03T13:48:54;1.60;;;1.13;;
36443;SDS011;24692;45.642;13.806;2023-04-03T13:53:54;1.77;;;1.30;;
36443;SDS011;24692;45.642;13.806;2023-04-03T13:56:33;1.50;;;1.37;;
36443;SDS011;24692;45.642;13.806;2023-04-03T14:02:33;1.60;;;0.97;;
36443;SDS011;24692;45.642;13.806;2023-04-03T14:07:13;1.23;;;1.13;;
36443;SDS011;24692;45.642;13.806;2023-04-03T14:09:41;2.40;;;1.20;;
36443;SDS011;24692;45.642;13.806;2023-04-03T14:14:47;2.43;;;1.10;;
36443;SDS011;24692;45.642;13.806;2023-04-03T14:17:15;1.40;;;1.30;;
36443;SDS011;24692;45.642;13.806;2023-04-03T14:19:43;1.87;;;1.20;;
36443;SDS011;24692;45.642;13.806;2023-04-03T14:22:15;1.47;;;1.37;;
36443;SDS011;24692;45.642;13.806;2023-04-03T14:24:47;1.00;;;1.00;;
36443;SDS011;24692;45.642;13.806;2023-04-03T14:27:18;1.30;;;1.20;;
36443;SDS011;24692;45.642;13.806;2023-04-03T14:29:47;1.40;;;1.20;;
36443;SDS011;24692;45.642;13.806;2023-04-03T14:32:14;1.87;;;1.20;;
36443;SDS011;24692;45.642;13.806;2023-04-03T14:34:42;1.20;;;1.10;;
36443;SDS011;24692;45.642;13.806;2023-04-03T14:37:12;1.57;;;1.47;;
36443;SDS011;24692;45.642;13.806;2023-04-03T14:39:40;3.57;;;1.30;;
36443;SDS011;24692;45.642;13.806;2023-04-03T14:42:05;1.50;;;1.40;;
36443;SDS011;24692;45.642;13.806;2023-04-03T14:44:35;2.70;;;1.50;;
36443;SDS011;24692;45.642;13.806;2023-04-03T14:47:01;1.13;;;1.03;;
36443;SDS011;24692;45.642;13.806;2023-04-03T14:49:27;2.37;;;1.40;;
36443;SDS011;24692;45.642;13.806;2023-04-03T14:51:54;1.30;;;1.20;;
36443;SDS011;24692;45.642;13.806;2023-04-03T14:54:22;2.90;;;1.40;;
36443;SDS011;24692;45.642;13.806;2023-04-03T14:56:53;1.43;;;1.30;;
36443;SDS011;24692;45.642;13.806;2023-04-03T14:59:20;2.57;;;1.37;;
36443;SDS011;24692;45.642;13.806;2023-04-03T15:01:47;2.10;;;1.40;;
36443;SDS011;24692;45.642;13.806;2023-04-03T15:04:13;1.53;;;1.40;;
36443;SDS011;24692;45.642;13.806;2023-04-03T15:06:41;1.67;;;1.20;;
36443;SDS011;24692;45.642;13.806;2023-04-03T15:09:21;1.60;;;1.50;;
36443;SDS011;24692;45.642;13.806;2023-04-03T15:11:49;1.33;;;1.20;;
36443;SDS011;24692;45.642;13.806;2023-04-03T15:14:16;1.40;;;1.30;;
36443;SDS011;24692;45.642;13.806;2023-04-03T15:16:41;1.60;;;1.30;;
36443;SDS011;24692;45.642;13.806;2023-04-03T15:19:07;3.33;;;1.30;;
36443;SDS011;24692;45.642;13.806;2023-04-03T15:21:33;3.10;;;1.53;;
36443;SDS011;24692;45.642;13.806;2023-04-03T15:23:59;2.20;;;1.40;;
36443;SDS011;24692;45.642;13.806;2023-04-03T15:26:24;2.33;;;1.57;;
36443;SDS011;24692;45.642;13.806;2023-04-03T15:28:50;1.50;;;1.40;;
36443;SDS011;24692;45.642;13.806;2023-04-03T15:31:16;1.60;;;1.40;;
36443;SDS011;24692;45.642;13.806;2023-04-03T15:33:42;3.50;;;1.40;;
36443;SDS011;24692;45.642;13.806;2023-04-03T15:36:07;1.73;;;1.40;;
36443;SDS011;24692;45.642;13.806;2023-04-03T15:38:33;2.53;;;1.43;;
36443;SDS011;24692;45.642;13.806;2023-04-03T15:40:59;1.40;;;1.30;;
36443;SDS011;24692;45.642;13.806;2023-04-03T15:43:26;2.03;;;1.43;;
36443;SDS011;24692;45.642;13.806;2023-04-03T15:45:51;1.43;;;1.30;;
36443;SDS011;24692;45.642;13.806;2023-04-03T15:48:21;1.97;;;1.50;;
36443;SDS011;24692;45.642;13.806;2023-04-03T15:50:46;2.13;;;1.50;;
36443;SDS011;24692;45.642;13.806;2023-04-03T15:53:12;2.27;;;1.53;;
36443;SDS011;24692;45.642;13.806;2023-04-03T15:55:38;3.80;;;1.63;;
36443;SDS011;24692;45.642;13.806;2023-04-03T15:58:04;1.63;;;1.53;;
36443;SDS011;24692;45.642;13.806;2023-04-03T16:00:30;2.57;;;1.80;;
36443;SDS011;24692;45.642;13.806;2023-04-03T16:03:00;2.00;;;1.57;;
36443;SDS011;24692;45.642;13.806;2023-04-03T16:05:29;2.20;;;1.83;;
36443;SDS011;24692;45.642;13.806;2023-04-03T16:07:56;2.40;;;1.80;;
36443;SDS011;24692;45.642;13.806;2023-04-03T16:10:24;2.13;;;1.80;;
36443;SDS011;24692;45.642;13.806;2023-04-03T16:12:50;1.63;;;1.53;;
36443;SDS011;24692;45.642;13.806;2023-04-03T16:15:15;2.00;;;1.60;;
36443;SDS011;24692;45.642;13.806;2023-04-03T16:17:41;2.70;;;1.80;;
36443;SDS011;24692;45.642;13.806;2023-04-03T16:20:07;2.50;;;1.60;;
36443;SDS011;24692;45.642;13.806;2023-04-03T16:22:34;1.63;;;1.50;;
36443;SDS011;24692;45.642;13.806;2023-04-03T16:25:00;1.97;;;1.80;;
36443;SDS011;24692;45.642;13.806;2023-04-03T16:27:26;3.63;;;1.60;;
36443;SDS011;24692;45.642;13.806;2023-04-03T16:29:56;2.87;;;1.73;;
36443;SDS011;24692;45.642;13.806;2023-04-03T16:32:22;2.70;;;2.00;;
36443;SDS011;24692;45.642;13.806;2023-04-03T16:34:49;3.33;;;1.70;;
36443;SDS011;24692;45.642;13.806;2023-04-03T16:37:15;1.90;;;1.70;;
36443;SDS011;24692;45.642;13.806;2023-04-03T16:39:42;1.90;;;1.67;;
36443;SDS011;24692;45.642;13.806;2023-04-03T16:42:07;2.37;;;1.70;;
36443;SDS011;24692;45.642;13.806;2023-04-03T16:44:34;2.60;;;1.67;;
36443;SDS011;24692;45.642;13.806;2023-04-03T16:47:01;1.97;;;1.70;;
36443;SDS011;24692;45.642;13.806;2023-04-03T16:49:27;2.53;;;1.80;;